Latest Weather Observations for Melbourne (Olympic Park)

IDV60801

Issued at 6:32 pm EDT Tuesday 17 October 2017 (issued every 30 minutes, with the page automatically refreshed every 10 minutes)

About weather observations | Map of weather stations | Latest weather observations for VIC | Other Formats
Station Details ID: 086338 Name: MELBOURNE (OLYMPIC PARK) Lat: -37.83 Lon: 144.98 Height: 7.53 m
Data from the previous 72 hours. | See also: Recent months at Melbourne (Olympic Park)
Date/Time
EDT
Temp
°C
App
Temp
°C
Dew
Point
°C
Rel
Hum
%
Delta-T
°C
Wind Press
QNH
hPa
Press
MSL
hPa
Rain since
9am
mm
Dir  Spd
km/h
Gust
km/h
Spd
kts
Gust
kts
17/06:30pm 29.2 26.5 7.2 25 11.8 NNE 11 19 6 10 1019.9 1019.9 -
17/06:00pm 29.4 25.8 6.7 24 12.1 NNW 15 22 8 12 1019.8 1019.8 -
17/05:30pm 29.6 26.6 7.5 25 12.0 N 13 20 7 11 1019.9 1019.9 -
17/05:00pm 29.9 26.2 6.5 23 12.4 N 15 20 8 11 1020.0 1020.0 -
17/04:30pm 29.7 25.5 5.7 22 12.6 N 17 28 9 15 1020.1 1020.1 -
17/04:00pm 29.7 25.6 6.4 23 12.4 N 17 28 9 15 1020.3 1020.3 -
17/03:30pm 29.6 25.9 8.1 26 11.8 NNW 17 28 9 15 1020.4 1020.4 -
17/03:00pm 30.1 26.2 7.3 24 12.3 N 17 26 9 14 1020.6 1020.6 0.0
17/02:45pm 29.2 24.5 5.3 22 12.4 N 19 32 10 17 1020.9 1020.9 -
17/02:30pm 29.5 25.3 7.4 25 11.9 N 19 28 10 15 1021.0 1021.0 -
17/02:00pm 28.9 23.6 6.9 25 11.7 N 24 35 13 19 1022.2 - 0.0
17/01:30pm 28.8 24.9 8.5 28 11.1 N 19 32 10 17 1021.4 1021.4 0.0
17/01:00pm 28.3 24.4 9.6 31 10.4 NNW 20 32 11 17 1021.8 1021.8 0.0
17/12:30pm 28.1 25.3 9.9 32 10.2 NNE 15 26 8 14 1022.1 1022.1 0.0
17/12:00pm 26.8 22.8 9.2 33 9.6 N 20 32 11 17 1022.4 1022.4 0.0
17/11:30am 25.7 20.5 8.7 34 9.2 N 26 37 14 20 1022.7 1022.7 0.0
17/11:00am 25.1 20.7 9.0 36 8.7 N 22 35 12 19 1023.0 1023.0 0.0
17/10:30am 24.7 20.8 8.6 36 8.6 N 19 30 10 16 1023.1 1023.1 0.0
17/10:00am 23.8 19.4 9.0 39 7.9 N 22 33 12 18 1023.3 1023.3 0.0
17/09:30am 22.6 19.1 10.1 45 6.8 N 19 28 10 15 1023.3 1023.3 0.0
17/09:00am 21.0 19.4 10.2 50 5.8 NNE 9 15 5 8 1023.2 1023.2 0.0
17/08:30am 17.9 16.4 10.5 62 4.0 NE 9 11 5 6 1023.1 1023.1 0.0
17/08:00am 16.1 14.6 10.6 70 2.9 NNE 9 15 5 8 1022.9 1022.9 0.0
17/07:30am 14.7 13.2 10.7 77 2.1 NNE 9 13 5 7 1022.7 1022.7 0.0
17/07:00am 14.4 13.0 10.8 79 1.9 NNE 9 13 5 7 1022.4 1022.4 0.0
17/06:30am 13.5 13.4 10.7 83 1.5 NNW 2 6 1 3 1022.2 1022.2 0.0
17/06:00am 14.5 12.9 11.5 82 1.6 NNE 11 15 6 8 1021.8 1021.8 0.0
17/05:30am 14.4 13.6 11.7 84 1.4 NNE 7 11 4 6 1021.8 1021.8 0.0
17/05:00am 14.4 13.6 11.6 83 1.5 NNE 7 11 4 6 1021.8 1021.8 0.0
17/04:30am 14.5 13.9 11.7 83 1.5 NNE 6 7 3 4 1021.8 1021.8 0.0
17/04:00am 14.8 14.2 11.8 82 1.6 NNE 6 9 3 5 1021.8 1021.8 0.0
17/03:30am 15.7 15.0 12.1 79 2.0 NE 7 11 4 6 1021.8 1021.8 0.0
17/03:00am 16.0 15.7 12.6 80 1.9 NNE 6 11 3 6 1021.9 1021.9 0.0
17/02:30am 15.0 15.2 14.2 95 0.5 NE 6 7 3 4 1021.9 1021.9 0.0
17/02:00am 15.2 16.7 14.7 97 0.3 CALM 0 0 0 0 1022.4 1022.4 0.0
17/01:30am 15.7 17.3 14.9 95 0.5 CALM 0 0 0 0 1022.6 1022.6 0.0
17/01:00am 16.2 17.7 14.6 90 0.9 CALM 0 0 0 0 1022.9 1022.9 0.0
17/12:30am 17.0 18.6 14.8 87 1.3 CALM 0 0 0 0 1023.1 1023.1 0.0
17/12:00am 17.4 18.9 14.7 84 1.6 CALM 0 7 0 4 1023.1 1023.1 0.0
 
Date/Time
EDT
Temp
°C
App
Temp
°C
Dew
Point
°C
Rel
Hum
%
Delta-T
°C
Wind Press
QNH
hPa
Press
MSL
hPa
Rain since
9am
mm
Dir  Spd
km/h
Gust
km/h
Spd
kts
Gust
kts
16/11:30pm 17.8 19.5 15.1 84 1.6 CALM 0 0 0 0 1023.0 1023.0 0.0
16/11:00pm 19.2 20.2 14.2 73 2.9 WNW 2 7 1 4 1022.8 1022.8 0.0
16/10:30pm 20.6 21.6 14.3 67 3.7 NE 2 7 1 4 1022.7 1022.7 0.0
16/10:26pm 20.7 21.6 14.1 66 3.8 NNE 2 7 1 4 1022.7 1022.7 0.0
16/10:05pm 21.5 22.5 14.4 64 4.2 ENE 2 9 1 5 1022.6 1022.6 0.0
16/10:00pm 21.2 22.1 14.1 64 4.1 E 2 9 1 5 1022.6 1022.6 0.0
16/09:30pm 21.8 22.1 13.4 59 4.8 SE 4 13 2 7 1022.6 1022.6 0.0
16/09:00pm 22.6 21.8 12.8 54 5.6 SE 9 17 5 9 1022.6 1022.6 0.0
16/08:30pm 23.1 22.7 12.4 51 6.1 ESE 6 13 3 7 1022.2 1022.2 0.0
16/08:00pm 20.8 22.2 14.5 67 3.7 CALM 0 0 0 0 1021.9 1021.9 0.0
16/07:30pm 21.6 22.5 14.0 62 4.4 WNW 2 7 1 4 1021.7 1021.7 0.0
16/07:00pm 24.3 25.2 12.9 49 6.6 CALM 0 6 0 3 1021.5 1021.5 0.0
16/06:30pm 25.5 23.9 10.1 38 8.5 SSW 9 17 5 9 1021.4 1021.4 0.0
16/06:00pm 27.2 25.7 10.4 35 9.4 N 9 13 5 7 1021.1 1021.1 0.0
16/05:30pm 27.9 26.2 9.7 32 10.1 NNW 9 24 5 13 1021.0 1021.0 0.0
16/05:00pm 27.6 24.3 9.4 32 10.0 NNE 17 24 9 13 1021.0 1021.0 0.0
16/04:30pm 28.2 25.8 9.9 32 10.2 N 13 24 7 13 1021.0 1021.0 0.0
16/04:00pm 28.1 25.7 9.9 32 10.1 NNE 13 24 7 13 1021.3 1021.3 0.0
16/03:30pm 28.0 25.8 9.3 31 10.3 N 11 28 6 15 1021.6 1021.6 0.0
16/03:00pm 26.2 25.3 11.5 40 8.3 S 7 17 4 9 1021.9 1021.9 0.0
16/02:30pm 25.5 24.9 13.4 47 7.1 SSW 9 15 5 8 1022.3 1022.3 0.0
16/02:00pm 23.7 22.3 13.3 52 6.0 SW 13 22 7 12 1022.8 1022.8 0.0
16/01:30pm 27.2 26.3 11.3 37 9.1 WNW 7 28 4 15 1022.8 1022.8 0.0
16/01:00pm 22.5 21.9 13.6 57 5.1 SSW 9 17 5 9 1023.3 1023.3 0.0
16/12:30pm 21.5 21.3 13.7 61 4.5 SSW 7 11 4 6 1023.7 1023.7 0.0
16/12:00pm 20.1 18.9 12.8 63 4.1 SSW 11 19 6 10 1024.2 1024.2 0.0
16/11:30am 21.5 21.3 12.9 58 4.9 SSW 6 9 3 5 1024.7 1024.7 0.0
16/11:00am 19.8 20.1 12.1 61 4.3 ESE 2 9 1 5 1025.2 1025.2 0.0
16/10:30am 17.2 17.0 11.9 71 2.9 NNE 4 11 2 6 1025.6 1025.6 0.0
16/10:00am 15.7 15.1 11.7 77 2.2 NE 6 11 3 6 1025.8 1025.8 0.0
16/09:30am 13.7 13.4 11.6 87 1.1 N 4 9 2 5 1026.0 1026.0 0.0
16/09:00am 12.9 12.6 11.5 91 0.7 N 4 9 2 5 1025.9 1025.9 0.0
16/08:30am 12.2 11.5 11.3 94 0.5 NW 6 13 3 7 1026.0 1026.0 0.0
16/08:00am 12.1 11.1 11.0 93 0.6 N 7 11 4 6 1025.7 1025.7 0.0
16/07:30am 12.1 11.0 10.8 92 0.7 NNE 7 13 4 7 1025.5 1025.5 0.0
16/07:00am 12.5 11.2 11.1 91 0.7 NNE 9 13 5 7 1025.2 1025.2 0.0
16/06:30am 12.6 11.2 10.8 89 0.9 NNE 9 13 5 7 1024.9 1024.9 0.0
16/06:00am 12.8 11.8 11.0 89 0.9 NE 7 9 4 5 1024.6 1024.6 0.0
16/05:30am 12.6 11.6 11.0 90 0.8 NNE 7 11 4 6 1024.6 1024.6 0.0
16/05:00am 12.7 11.7 11.1 90 0.8 NNE 7 9 4 5 1024.5 1024.5 0.0
16/04:30am 12.7 12.7 11.1 90 0.8 E 2 6 1 3 1024.3 1024.3 0.0
16/04:00am 12.6 13.0 11.2 91 0.7 CALM 0 0 0 0 1024.5 1024.5 0.0
16/03:30am 12.5 12.9 11.2 92 0.7 CALM 0 0 0 0 1024.6 1024.6 0.0
16/03:00am 12.4 12.4 11.3 93 0.6 E 2 7 1 4 1024.8 1024.8 0.0
16/02:30am 12.1 12.6 11.5 96 0.3 CALM 0 0 0 0 1025.2 1025.2 0.0
16/02:00am 11.8 12.2 11.2 96 0.3 CALM 0 0 0 0 1025.3 1025.3 0.0
16/01:30am 11.4 11.6 10.5 94 0.5 CALM 0 0 0 0 1025.4 1025.4 0.0
16/01:00am 11.7 11.5 10.6 93 0.6 S 2 7 1 4 1025.4 1025.4 0.0
16/12:30am 12.0 11.5 10.7 92 0.7 SSE 4 7 2 4 1025.4 1025.4 0.0
16/12:00am 12.2 11.3 10.8 91 0.7 S 6 9 3 5 1025.5 1025.5 0.0
 
Date/Time
EDT
Temp
°C
App
Temp
°C
Dew
Point
°C
Rel
Hum
%
Delta-T
°C
Wind Press
QNH
hPa
Press
MSL
hPa
Rain since
9am
mm
Dir  Spd
km/h
Gust
km/h
Spd
kts
Gust
kts
15/11:30pm 12.3 12.1 10.4 88 1.0 S 2 6 1 3 1025.4 1025.4 0.0
15/11:00pm 12.7 12.1 10.4 86 1.2 S 4 9 2 5 1025.5 1025.5 0.0
15/10:30pm 12.8 12.5 10.2 84 1.3 S 2 7 1 4 1025.5 1025.5 0.0
15/10:00pm 13.1 13.3 10.6 85 1.3 CALM 0 6 0 3 1025.5 1025.5 0.0
15/09:30pm 13.9 12.8 10.1 78 2.0 S 6 9 3 5 1025.4 1025.4 0.0
15/09:00pm 14.4 13.8 10.4 77 2.1 S 4 7 2 4 1025.2 1025.2 0.0
15/08:30pm 14.5 15.0 11.5 82 1.6 CALM 0 6 0 3 1024.9 1024.9 0.0
15/08:00pm 15.1 13.9 11.5 79 1.9 SSW 9 15 5 8 1024.7 1024.7 0.0
15/07:30pm 15.5 13.8 11.3 76 2.3 SSW 11 17 6 9 1024.3 1024.3 0.0
15/07:00pm 16.4 14.3 11.3 72 2.7 SSW 13 20 7 11 1024.0 1024.0 0.0
15/06:30pm 17.1 15.1 11.4 69 3.1 SW 13 20 7 11 1023.7 1023.7 0.0
15/06:00pm 17.0 14.8 12.1 73 2.7 SSW 15 26 8 14 1023.8 1023.8 0.0
15/05:30pm 16.9 14.2 11.8 72 2.8 SSW 17 26 9 14 1023.8 1023.8 0.0
15/05:00pm 17.0 14.7 11.7 71 2.9 SSW 15 26 8 14 1023.8 1023.8 0.0
15/04:30pm 16.5 13.7 11.2 71 2.9 SSW 17 26 9 14 1024.0 1024.0 0.0
15/04:00pm 16.4 13.4 10.7 69 3.0 SSW 17 30 9 16 1024.0 1024.0 0.0
15/03:30pm 16.1 13.1 10.6 70 2.9 SSW 17 28 9 15 1024.2 1024.2 0.0
15/03:00pm 16.7 13.7 10.5 67 3.3 SSW 17 24 9 13 1024.3 1024.3 0.0
15/02:30pm 17.1 14.2 9.8 62 3.8 SSW 15 20 8 11 1024.3 1024.3 0.0
15/02:00pm 16.7 14.3 9.9 64 3.6 SSW 13 20 7 11 1024.7 1024.7 0.0
15/01:30pm 16.2 13.6 9.2 63 3.6 S 13 20 7 11 1024.7 1024.7 0.0
15/01:00pm 15.9 13.6 8.9 63 3.6 SSW 11 19 6 10 1024.9 1024.9 0.0
15/12:30pm 16.3 14.1 9.3 63 3.6 SSW 11 15 6 8 1025.2 1025.2 0.0
15/12:00pm 15.7 13.4 9.1 65 3.4 SSW 11 19 6 10 1025.5 1025.5 0.0
15/11:30am 14.7 12.2 8.0 64 3.3 S 11 17 6 9 1025.8 1025.8 0.0
15/11:00am 14.4 11.4 7.9 65 3.2 S 13 17 7 9 1026.1 1026.1 0.0
15/10:30am 14.9 13.0 7.7 62 3.6 S 7 11 4 6 1026.2 1026.2 0.0
15/10:00am 14.8 13.1 7.4 61 3.6 SSE 6 11 3 6 1026.2 1026.2 0.0
15/09:30am 13.4 12.3 6.7 64 3.2 S 2 7 1 4 1026.2 1026.2 0.0
15/09:00am 12.4 10.8 6.5 67 2.8 SE 4 7 2 4 1026.3 1026.3 0.0
15/08:30am 12.1 11.4 7.0 71 2.4 CALM 0 0 0 0 1026.2 1026.2 0.0
15/08:00am 10.0 9.2 6.3 78 1.7 CALM 0 0 0 0 1026.2 1026.2 0.0
15/07:30am 7.9 7.0 6.2 89 0.8 CALM 0 6 0 3 1025.9 1025.9 0.0
15/07:00am 7.3 6.5 6.7 96 0.3 CALM 0 0 0 0 1025.5 1025.5 0.0
15/06:30am 7.2 6.5 6.8 97 0.2 CALM 0 0 0 0 1025.0 1025.0 0.0
15/06:00am 7.4 6.7 6.8 96 0.3 CALM 0 0 0 0 1024.6 1024.6 0.0
15/05:30am 7.5 6.8 6.8 95 0.3 CALM 0 0 0 0 1024.5 1024.5 0.0
15/05:00am 7.7 7.0 6.8 94 0.4 CALM 0 0 0 0 1024.3 1024.3 0.0
15/04:30am 7.7 6.9 6.6 93 0.5 CALM 0 0 0 0 1024.2 1024.2 0.0
15/04:00am 7.9 7.2 6.8 93 0.5 CALM 0 0 0 0 1024.3 1024.3 0.0
15/03:30am 8.1 7.4 7.0 93 0.5 CALM 0 0 0 0 1024.4 1024.4 0.0
15/03:00am 8.4 7.8 7.2 92 0.6 CALM 0 0 0 0 1024.6 1024.6 0.0
15/02:30am 8.2 7.4 6.7 90 0.7 CALM 0 0 0 0 1024.7 1024.7 0.0
15/02:00am 9.0 8.3 7.1 88 0.9 CALM 0 0 0 0 1024.8 1024.8 0.0
15/01:30am 9.1 8.4 7.1 87 0.9 CALM 0 0 0 0 1025.0 1025.0 0.0
15/01:00am 9.3 8.7 7.3 87 0.9 CALM 0 0 0 0 1025.3 1025.3 0.0
15/12:30am 9.4 8.6 6.7 83 1.3 CALM 0 0 0 0 1025.2 1025.2 0.0
15/12:00am 10.1 9.3 6.4 78 1.7 CALM 0 0 0 0 1025.3 1025.3 0.0
 
Date/Time
EDT
Temp
°C
App
Temp
°C
Dew
Point
°C
Rel
Hum
%
Delta-T
°C
Wind Press
QNH
hPa
Press
MSL
hPa
Rain since
9am
mm
Dir  Spd
km/h
Gust
km/h
Spd
kts
Gust
kts
14/11:30pm 10.5 9.7 6.3 75 2.0 CALM 0 0 0 0 1025.2 1025.2 0.0
14/11:00pm 11.0 9.4 6.2 72 2.2 S 4 7 2 4 1025.3 1025.3 0.0
14/10:30pm 11.3 10.0 5.8 69 2.6 SSW 2 7 1 4 1025.4 1025.4 0.0
14/10:00pm 12.3 10.1 5.5 63 3.1 S 6 9 3 5 1025.4 1025.4 0.0
14/09:30pm 12.6 10.2 5.3 61 3.4 SSE 7 13 4 7 1025.4 1025.4 0.0
14/09:00pm 13.1 10.8 5.5 60 3.5 SSE 7 13 4 7 1025.5 1025.5 0.0
14/08:30pm 13.4 11.3 6.5 63 3.3 SSE 7 13 4 7 1025.2 1025.2 0.0
14/08:00pm 13.5 11.5 7.3 66 3.0 S 7 13 4 7 1025.1 1025.1 0.0
14/07:30pm 13.8 11.4 6.9 63 3.3 S 9 17 5 9 1024.9 1024.9 0.0
14/07:00pm 14.1 10.9 6.7 61 3.6 S 13 22 7 12 1024.7 1024.7 0.0

Other Formats:

Comma delimited format used in spreadsheet applications
http://www.bom.gov.au/fwo/IDV60801/IDV60801.95936.axf

JavaScript Object Notation format (JSON) in row-major order
http://www.bom.gov.au/fwo/IDV60801/IDV60801.95936.json